createdAt,value
2023-05-12T00:00:58.004Z,94432.97
2023-05-12T00:03:25.097Z,94425.75
2023-05-12T00:05:52.321Z,94427.19
2023-05-12T00:08:19.324Z,94418.25
2023-05-12T00:10:46.034Z,94415.50
2023-05-12T00:13:12.854Z,94412.66
2023-05-12T00:15:39.751Z,94419.75
2023-05-12T00:18:06.607Z,94413.44
2023-05-12T00:20:33.430Z,94402.34
2023-05-12T00:23:00.219Z,94412.06
2023-05-12T00:25:26.974Z,94419.50
2023-05-12T00:27:53.714Z,94406.41
2023-05-12T00:30:21.448Z,94406.94
2023-05-12T00:32:48.548Z,94399.34
2023-05-12T00:35:16.469Z,94400.84
2023-05-12T00:37:43.602Z,94416.25
2023-05-12T00:40:10.991Z,94402.28
2023-05-12T00:42:38.217Z,94400.22
2023-05-12T00:45:06.426Z,94402.81
2023-05-12T00:47:33.954Z,94414.72
2023-05-12T00:50:01.030Z,94409.53
2023-05-12T00:52:27.996Z,94417.88
2023-05-12T00:54:55.240Z,94410.63
2023-05-12T00:57:24.160Z,94414.13
2023-05-12T00:59:51.704Z,94396.41
2023-05-12T01:02:18.490Z,94399.34
2023-05-12T01:04:45.568Z,94407.91
2023-05-12T01:07:22.700Z,94394.22
2023-05-12T01:09:55.653Z,94397.88
2023-05-12T01:12:24.175Z,94395.28
2023-05-12T01:14:53.793Z,94401.19
2023-05-12T01:17:29.649Z,94400.81
2023-05-12T01:20:00.368Z,94390.19
2023-05-12T01:22:31.424Z,94392.44
2023-05-12T01:25:04.477Z,94401.25
2023-05-12T01:27:33.199Z,94399.16
2023-05-12T01:30:05.727Z,94383.25
2023-05-12T01:32:35.851Z,94385.16
2023-05-12T01:35:04.021Z,94392.53
2023-05-12T01:37:32.806Z,94385.78
2023-05-12T01:40:02.663Z,94384.16
2023-05-12T01:42:29.705Z,94379.63
2023-05-12T01:44:57.065Z,94383.31
2023-05-12T01:47:24.160Z,94378.53
2023-05-12T01:49:57.709Z,94388.81
2023-05-12T01:52:25.526Z,94391.25
2023-05-12T01:54:52.456Z,94376.69
2023-05-12T01:57:19.344Z,94393.38
2023-05-12T01:59:47.062Z,94389.78
2023-05-12T02:02:13.948Z,94391.19
2023-05-12T02:04:40.922Z,94380.06
2023-05-12T02:07:08.213Z,94387.34
2023-05-12T02:09:34.969Z,94385.91
2023-05-12T02:12:02.618Z,94382.28
2023-05-12T02:14:29.957Z,94384.66
2023-05-12T02:16:57.216Z,94395.91
2023-05-12T02:19:25.808Z,94391.72
2023-05-12T02:21:52.824Z,94390.72
2023-05-12T02:24:21.764Z,94400.72
2023-05-12T02:26:49.093Z,94386.09
2023-05-12T02:29:16.077Z,94411.19
2023-05-12T02:31:42.951Z,94410.28
2023-05-12T02:34:16.175Z,94407.09
2023-05-12T02:36:43.048Z,94403.31
2023-05-12T02:39:11.616Z,94407.63
2023-05-12T02:41:38.740Z,94411.38
2023-05-12T02:44:05.734Z,94390.72
2023-05-12T02:46:32.827Z,94397.19
2023-05-12T02:48:59.652Z,94400.22
2023-05-12T02:51:26.441Z,94405.22
2023-05-12T02:53:53.712Z,94406.03
2023-05-12T02:56:21.250Z,94406.41
2023-05-12T02:58:48.273Z,94413.41
2023-05-12T03:01:15.045Z,94402.25
2023-05-12T03:03:42.261Z,94409.03
2023-05-12T03:06:09.617Z,94405.31
2023-05-12T03:08:36.752Z,94418.75
2023-05-12T03:11:03.559Z,94385.47
2023-05-12T03:13:30.414Z,94412.00
2023-05-12T03:16:01.788Z,94399.47
2023-05-12T03:18:29.953Z,94398.81
2023-05-12T03:20:57.006Z,94405.13
2023-05-12T03:23:24.819Z,94410.00
2023-05-12T03:25:51.735Z,94396.78
2023-05-12T03:28:18.670Z,94406.81
2023-05-12T03:30:45.488Z,94412.06
2023-05-12T03:33:12.313Z,94394.25
2023-05-12T03:35:39.340Z,94405.75
2023-05-12T03:38:06.547Z,94407.94
2023-05-12T03:40:33.696Z,94401.91
2023-05-12T03:43:00.513Z,94413.63
2023-05-12T03:45:27.291Z,94397.91
2023-05-12T03:47:54.476Z,94398.84
2023-05-12T03:50:21.837Z,94400.41
2023-05-12T03:52:49.544Z,94400.41
2023-05-12T03:55:16.304Z,94395.69
2023-05-12T03:57:43.320Z,94405.25
2023-05-12T04:00:11.628Z,94405.94
2023-05-12T04:02:44.004Z,94396.72
2023-05-12T04:05:11.031Z,94384.56
2023-05-12T04:07:38.404Z,94394.28
2023-05-12T04:10:05.576Z,94409.56
2023-05-12T04:12:33.056Z,94402.53
2023-05-12T04:15:00.354Z,94411.38
2023-05-12T04:17:27.270Z,94395.44
2023-05-12T04:19:54.482Z,94411.34
2023-05-12T04:22:22.853Z,94417.25
2023-05-12T04:24:51.260Z,94404.91
2023-05-12T04:27:18.839Z,94396.63
2023-05-12T04:29:45.763Z,94407.47
2023-05-12T04:32:12.797Z,94428.22
2023-05-12T04:34:40.024Z,94415.97
2023-05-12T04:37:07.096Z,94411.59
2023-05-12T04:39:34.319Z,94434.69
2023-05-12T04:42:02.382Z,94417.84
2023-05-12T04:44:31.486Z,94438.16
2023-05-12T04:46:58.268Z,94444.69
2023-05-12T04:49:25.416Z,94431.25
2023-05-12T04:51:52.397Z,94437.88
2023-05-12T04:54:19.208Z,94420.06
2023-05-12T04:56:46.268Z,94435.28
2023-05-12T04:59:15.842Z,94427.31
2023-05-12T05:01:44.014Z,94421.41
2023-05-12T05:04:11.090Z,94428.56
2023-05-12T05:06:38.432Z,94408.13
2023-05-12T05:09:07.539Z,94422.22
2023-05-12T05:11:34.427Z,94435.44
2023-05-12T05:14:01.772Z,94444.91
2023-05-12T05:16:28.820Z,94440.00
2023-05-12T05:18:58.173Z,94434.75
2023-05-12T05:21:25.470Z,94433.47
2023-05-12T05:23:53.502Z,94443.69
2023-05-12T05:26:21.658Z,94430.44
2023-05-12T05:28:48.907Z,94440.47
2023-05-12T05:31:17.174Z,94440.34
2023-05-12T05:33:44.887Z,94440.38
2023-05-12T05:36:11.942Z,94446.22
2023-05-12T05:38:39.339Z,94444.22
2023-05-12T05:41:06.534Z,94452.28
2023-05-12T05:43:33.307Z,94454.44
2023-05-12T05:46:00.160Z,94450.41
2023-05-12T05:48:27.100Z,94459.78
2023-05-12T05:50:54.659Z,94461.41
2023-05-12T05:53:23.191Z,94447.91
2023-05-12T05:55:50.501Z,94455.22
2023-05-12T05:58:17.488Z,94449.19
2023-05-12T06:00:45.776Z,94458.47
2023-05-12T06:03:12.934Z,94457.78
2023-05-12T06:05:42.337Z,94458.16
2023-05-12T06:08:13.295Z,94456.69
2023-05-12T06:10:41.084Z,94462.38
2023-05-12T06:13:07.987Z,94455.28
2023-05-12T06:15:34.869Z,94447.03
2023-05-12T06:18:01.741Z,94460.75
2023-05-12T06:20:28.670Z,94460.13
2023-05-12T06:22:55.774Z,94465.06
2023-05-12T06:25:22.735Z,94446.88
2023-05-12T06:27:53.470Z,94463.00
2023-05-12T06:30:20.575Z,94452.81
2023-05-12T06:32:47.413Z,94454.28
2023-05-12T06:35:14.210Z,94458.38
2023-05-12T06:37:41.372Z,94457.66
2023-05-12T06:40:08.505Z,94450.06
2023-05-12T06:42:35.365Z,94462.28
2023-05-12T06:45:09.956Z,94453.53
2023-05-12T06:47:36.746Z,94451.13
2023-05-12T06:50:03.762Z,94463.44
2023-05-12T06:52:30.481Z,94462.91
2023-05-12T06:54:57.259Z,94446.19
2023-05-12T06:57:26.411Z,94468.66
2023-05-12T06:59:53.653Z,94464.94
2023-05-12T07:02:20.486Z,94471.38
2023-05-12T07:04:47.202Z,94468.06
2023-05-12T07:07:13.990Z,94450.00
2023-05-12T07:09:42.528Z,94451.31
2023-05-12T07:12:10.231Z,94482.34
2023-05-12T07:14:37.316Z,94468.94
2023-05-12T07:17:04.074Z,94455.44
2023-05-12T07:19:30.931Z,94470.75
2023-05-12T07:21:58.883Z,94466.34
2023-05-12T07:24:25.782Z,94460.88
2023-05-12T07:26:52.533Z,94453.41
2023-05-12T07:29:19.347Z,94432.50
2023-05-12T07:31:46.253Z,94448.25
2023-05-12T07:34:13.105Z,94462.75
2023-05-12T07:36:40.501Z,94461.28
2023-05-12T07:39:07.206Z,94436.03
2023-05-12T07:41:34.575Z,94482.88
2023-05-12T07:44:02.445Z,94453.09
2023-05-12T07:46:29.289Z,94435.16
2023-05-12T07:48:56.054Z,94431.34
2023-05-12T07:51:22.851Z,94476.63
2023-05-12T07:53:49.632Z,94483.34
2023-05-12T07:56:16.347Z,94446.47
2023-05-12T07:58:43.843Z,94445.66
2023-05-12T08:01:12.038Z,94476.34
2023-05-12T08:03:39.472Z,94458.00
2023-05-12T08:06:07.384Z,94458.25
2023-05-12T08:08:34.841Z,94457.72
2023-05-12T08:11:01.566Z,94469.75
2023-05-12T08:13:28.358Z,94481.28
2023-05-12T08:15:55.955Z,94461.28
2023-05-12T08:18:22.782Z,94478.19
2023-05-12T08:20:50.401Z,94446.69
2023-05-12T08:23:17.650Z,94440.88
2023-05-12T08:25:44.677Z,94453.19
2023-05-12T08:28:13.063Z,94464.00
2023-05-12T08:30:41.004Z,94443.69
2023-05-12T08:33:07.875Z,94472.78
2023-05-12T08:35:36.169Z,94417.31
2023-05-12T08:38:03.128Z,94478.44
2023-05-12T08:40:31.961Z,94450.88
2023-05-12T08:43:05.662Z,94462.75
2023-05-12T08:45:33.166Z,94458.66
2023-05-12T08:48:00.997Z,94457.97
2023-05-12T08:50:31.209Z,94462.47
2023-05-12T08:52:59.037Z,94455.78
2023-05-12T08:55:31.849Z,94445.25
2023-05-12T08:58:02.490Z,94458.34
2023-05-12T09:00:31.266Z,94450.63
2023-05-12T09:03:00.151Z,94483.44
2023-05-12T09:05:30.039Z,94442.69
2023-05-12T09:07:57.872Z,94462.25
2023-05-12T09:10:34.962Z,94480.56
2023-05-12T09:13:15.963Z,94476.75
2023-05-12T09:15:47.483Z,94476.81
2023-05-12T09:18:14.454Z,94476.50
2023-05-12T09:20:41.811Z,94449.09
2023-05-12T09:23:20.364Z,94488.50
2023-05-12T09:25:47.197Z,94469.84
2023-05-12T09:28:14.585Z,94445.69
2023-05-12T09:30:42.992Z,94498.53
2023-05-12T09:33:14.221Z,94479.38
2023-05-12T09:35:45.951Z,94450.66
2023-05-12T09:38:14.853Z,94479.09
2023-05-12T09:40:43.444Z,94474.19
2023-05-12T09:43:15.144Z,94495.75
2023-05-12T09:45:44.370Z,94483.56
2023-05-12T09:48:14.365Z,94481.41
2023-05-12T09:50:47.739Z,94496.16
2023-05-12T09:53:17.956Z,94450.72
2023-05-12T09:55:45.918Z,94454.28
2023-05-12T09:58:16.009Z,94486.69
2023-05-12T10:01:12.640Z,94453.13
2023-05-12T10:03:32.248Z,94465.91
2023-05-12T10:06:02.749Z,94466.34
2023-05-12T10:08:53.029Z,94477.97
2023-05-12T10:11:22.445Z,94490.75
2023-05-12T10:13:49.224Z,94463.09
2023-05-12T10:16:16.558Z,94487.38
2023-05-12T10:18:46.983Z,94474.34
2023-05-12T10:21:15.893Z,94481.81
2023-05-12T10:23:44.547Z,94485.50
2023-05-12T10:26:12.246Z,94447.53
2023-05-12T10:28:38.961Z,94481.47
2023-05-12T10:31:07.357Z,94441.72
2023-05-12T10:33:34.157Z,94459.53
2023-05-12T10:36:01.192Z,94479.25
2023-05-12T10:38:36.473Z,94498.25
2023-05-12T10:41:06.497Z,94485.59
2023-05-12T10:43:46.789Z,94491.88
2023-05-12T10:46:17.931Z,94472.00
2023-05-12T10:49:07.297Z,94448.38
2023-05-12T10:51:43.644Z,94484.13
2023-05-12T10:54:12.781Z,94450.06
2023-05-12T10:56:39.773Z,94463.34
2023-05-12T10:59:14.020Z,94465.91
2023-05-12T11:02:04.068Z,94453.19
2023-05-12T11:04:59.103Z,94479.44
2023-05-12T11:07:30.669Z,94467.53
2023-05-12T11:10:05.502Z,94462.81
2023-05-12T11:12:37.688Z,94472.41
2023-05-12T11:15:06.380Z,94462.38
2023-05-12T11:17:33.338Z,94460.97
2023-05-12T11:20:01.389Z,94515.38
2023-05-12T11:22:29.182Z,94519.50
2023-05-12T11:24:56.540Z,94470.50
2023-05-12T11:27:24.161Z,94462.31
2023-05-12T11:30:04.349Z,94459.72
2023-05-12T11:32:31.498Z,94457.50
2023-05-12T11:35:11.802Z,94471.50
2023-05-12T11:37:40.328Z,94503.06
2023-05-12T11:40:18.608Z,94475.63
2023-05-12T11:42:48.875Z,94467.78
2023-05-12T11:45:34.061Z,94500.25
2023-05-12T11:48:13.378Z,94493.25
2023-05-12T11:50:47.615Z,94478.06
2023-05-12T11:53:17.369Z,94467.47
2023-05-12T11:55:55.819Z,94477.41
2023-05-12T11:58:27.046Z,94459.56
2023-05-12T12:00:55.149Z,94471.06
2023-05-12T12:03:22.227Z,94431.63
2023-05-12T12:06:01.334Z,94459.97
2023-05-12T12:08:28.520Z,94444.47
2023-05-12T12:10:55.661Z,94458.47
2023-05-12T12:13:24.952Z,94496.47
2023-05-12T12:15:52.857Z,94474.78
2023-05-12T12:18:19.725Z,94476.91
2023-05-12T12:20:47.408Z,94459.75
2023-05-12T12:23:14.687Z,94461.75
2023-05-12T12:25:41.429Z,94444.56
2023-05-12T12:28:09.071Z,94471.22
2023-05-12T12:30:35.821Z,94467.53
2023-05-12T12:33:02.600Z,94484.81
2023-05-12T12:35:29.927Z,94478.16
2023-05-12T12:37:57.367Z,94487.28
2023-05-12T12:40:24.077Z,94495.59
2023-05-12T12:42:50.957Z,94454.41
2023-05-12T12:45:20.271Z,94474.19
2023-05-12T12:47:47.785Z,94477.81
2023-05-12T12:50:14.995Z,94501.47
2023-05-12T12:52:41.824Z,94498.19
2023-05-12T12:55:10.030Z,94484.16
2023-05-12T12:57:36.883Z,94480.44
2023-05-12T13:00:05.615Z,94468.06
2023-05-12T13:02:33.608Z,94490.28
2023-05-12T13:05:06.091Z,94469.47
2023-05-12T13:07:33.510Z,94486.06
2023-05-12T13:10:00.515Z,94482.16
2023-05-12T13:12:29.377Z,94494.19
2023-05-12T13:14:56.144Z,94483.25
2023-05-12T13:17:23.417Z,94494.47
2023-05-12T13:19:50.198Z,94481.13
2023-05-12T13:22:16.872Z,94455.53
2023-05-12T13:24:44.443Z,94502.84
2023-05-12T13:27:11.125Z,94455.03
2023-05-12T13:29:38.008Z,94487.63
2023-05-12T13:32:04.960Z,94466.59
2023-05-12T13:34:31.791Z,94506.59
2023-05-12T13:36:59.443Z,94481.19
2023-05-12T13:39:26.231Z,94453.09
2023-05-12T13:41:53.100Z,94495.22
2023-05-12T13:44:19.855Z,94470.22
2023-05-12T13:46:47.033Z,94474.50
2023-05-12T13:49:14.713Z,94473.66
2023-05-12T13:51:41.513Z,94476.94
2023-05-12T13:54:08.308Z,94492.91
2023-05-12T13:56:35.018Z,94492.66
2023-05-12T13:59:01.976Z,94459.69
2023-05-12T14:01:29.506Z,94504.13
2023-05-12T14:03:56.297Z,94495.94
2023-05-12T14:06:23.268Z,94487.78
2023-05-12T14:08:50.046Z,94453.19
2023-05-12T14:11:17.181Z,94460.13
2023-05-12T14:13:44.779Z,94488.88
2023-05-12T14:16:15.013Z,94492.06
2023-05-12T14:18:43.470Z,94504.97
2023-05-12T14:21:10.880Z,94491.97
2023-05-12T14:23:37.835Z,94497.22
2023-05-12T14:26:05.077Z,94486.56
2023-05-12T14:28:31.928Z,94495.81
2023-05-12T14:30:59.545Z,94499.47
2023-05-12T14:33:27.202Z,94481.44
2023-05-12T14:36:05.818Z,94485.06
2023-05-12T14:38:33.756Z,94498.56
2023-05-12T14:41:00.477Z,94497.59
2023-05-12T14:43:27.231Z,94487.00
2023-05-12T14:45:57.737Z,94509.38
2023-05-12T14:48:27.684Z,94495.16
2023-05-12T14:50:55.752Z,94495.53
2023-05-12T14:53:23.443Z,94503.75
2023-05-12T14:55:51.033Z,94495.56
2023-05-12T14:58:18.778Z,94489.28
2023-05-12T15:00:45.688Z,94505.34
2023-05-12T15:03:13.871Z,94492.19
2023-05-12T15:06:01.814Z,94489.47
2023-05-12T15:08:27.692Z,94504.81
2023-05-12T15:10:54.436Z,94505.78
2023-05-12T15:13:22.771Z,94498.09
2023-05-12T15:15:50.982Z,94508.25
2023-05-12T15:18:19.713Z,94501.06
2023-05-12T15:20:46.800Z,94502.88
2023-05-12T15:23:14.171Z,94501.63
2023-05-12T15:25:41.771Z,94507.34
2023-05-12T15:28:08.521Z,94502.88
2023-05-12T15:30:36.139Z,94513.97
2023-05-12T15:33:06.186Z,94510.81
2023-05-12T15:35:33.870Z,94516.75
2023-05-12T15:38:00.729Z,94511.72
2023-05-12T15:40:27.470Z,94505.56
2023-05-12T15:42:54.412Z,94518.28
2023-05-12T15:45:21.294Z,94523.16
2023-05-12T15:47:48.234Z,94514.63
2023-05-12T15:50:19.871Z,94511.41
2023-05-12T15:52:47.445Z,94511.63
2023-05-12T15:55:14.580Z,94512.84
2023-05-12T15:57:41.401Z,94504.78
2023-05-12T16:00:08.740Z,94497.97
2023-05-12T16:02:41.374Z,94519.69
2023-05-12T16:05:09.779Z,94521.06
2023-05-12T16:07:36.675Z,94524.66
2023-05-12T16:10:03.803Z,94505.34
2023-05-12T16:12:31.247Z,94520.69
2023-05-12T16:14:58.015Z,94518.44
2023-05-12T16:17:24.843Z,94502.22
2023-05-12T16:19:53.547Z,94505.88
2023-05-12T16:22:20.364Z,94510.56
2023-05-12T16:24:47.651Z,94522.66
2023-05-12T16:27:15.316Z,94501.84
2023-05-12T16:29:46.095Z,94507.91
2023-05-12T16:32:13.013Z,94506.50
2023-05-12T16:34:39.929Z,94507.72
2023-05-12T16:37:06.678Z,94514.06
2023-05-12T16:39:35.766Z,94512.09
2023-05-12T16:42:03.355Z,94512.97
2023-05-12T16:44:30.253Z,94515.88
2023-05-12T16:46:57.132Z,94507.66
2023-05-12T16:49:23.883Z,94515.75
2023-05-12T16:51:50.637Z,94501.97
2023-05-12T16:54:18.643Z,94505.88
2023-05-12T16:56:45.485Z,94513.41
2023-05-12T16:59:12.167Z,94517.91
2023-05-12T17:01:39.645Z,94529.91
2023-05-12T17:04:07.960Z,94523.88
2023-05-12T17:06:35.081Z,94536.25
2023-05-12T17:09:02.109Z,94535.47
2023-05-12T17:11:28.882Z,94538.78
2023-05-12T17:13:55.896Z,94539.09
2023-05-12T17:16:22.928Z,94544.03
2023-05-12T17:21:19.598Z,94545.72
2023-05-12T17:23:47.273Z,94547.13
2023-05-12T17:26:14.584Z,94541.94
2023-05-12T17:28:41.561Z,94545.00
2023-05-12T17:31:08.651Z,94541.59
2023-05-12T17:33:35.669Z,94544.63
2023-05-12T17:36:11.698Z,94540.88
2023-05-12T17:38:40.581Z,94538.47
2023-05-12T17:41:07.292Z,94554.34
2023-05-12T17:43:34.330Z,94555.13
2023-05-12T17:46:03.469Z,94541.22
2023-05-12T17:48:36.315Z,94567.97
2023-05-12T17:51:06.689Z,94555.00
2023-05-12T17:53:36.305Z,94554.38
2023-05-12T17:56:06.504Z,94558.09
2023-05-12T17:58:33.739Z,94559.41
2023-05-12T18:01:00.780Z,94560.03
2023-05-12T18:03:27.575Z,94560.59
2023-05-12T18:05:54.449Z,94569.28
2023-05-12T18:08:21.851Z,94570.47
2023-05-12T18:10:48.948Z,94568.94
2023-05-12T18:13:16.085Z,94572.72
2023-05-12T18:15:43.053Z,94571.88
2023-05-12T18:18:11.107Z,94576.28
2023-05-12T18:20:38.087Z,94573.75
2023-05-12T18:23:04.967Z,94577.63
2023-05-12T18:25:32.270Z,94565.81
2023-05-12T18:27:59.082Z,94570.13
2023-05-12T18:30:25.974Z,94571.09
2023-05-12T18:32:52.953Z,94575.00
2023-05-12T18:35:20.040Z,94566.22
2023-05-12T18:37:47.524Z,94572.00
2023-05-12T18:40:14.443Z,94568.94
2023-05-12T18:42:41.283Z,94570.69
2023-05-12T18:45:08.434Z,94574.44
2023-05-12T18:47:35.221Z,94577.00
2023-05-12T18:50:02.821Z,94575.94
2023-05-12T18:52:29.499Z,94571.31
2023-05-12T18:54:56.376Z,94581.88
2023-05-12T18:57:23.162Z,94575.53
2023-05-12T18:59:50.251Z,94582.88
2023-05-12T19:02:17.744Z,94586.66
2023-05-12T19:04:44.612Z,94581.75
2023-05-12T19:07:15.300Z,94583.66
2023-05-12T19:09:43.005Z,94584.31
2023-05-12T19:12:11.847Z,94587.41
2023-05-12T19:14:39.889Z,94587.59
2023-05-12T19:17:07.684Z,94584.69
2023-05-12T19:19:35.026Z,94587.75
2023-05-12T19:22:04.103Z,94592.00
2023-05-12T19:24:30.970Z,94590.91
2023-05-12T19:26:58.022Z,94590.91
2023-05-12T19:29:24.811Z,94596.09
2023-05-12T19:31:53.199Z,94597.50
2023-05-12T19:34:20.750Z,94600.31
2023-05-12T19:36:48.041Z,94589.56
2023-05-12T19:39:14.821Z,94605.38
2023-05-12T19:41:41.682Z,94601.53
2023-05-12T19:44:08.420Z,94602.28
2023-05-12T19:46:35.399Z,94602.88
2023-05-12T19:49:02.443Z,94601.44
2023-05-12T19:51:29.364Z,94597.59
2023-05-12T19:53:56.119Z,94599.72
2023-05-12T19:56:22.927Z,94601.88
2023-05-12T19:58:49.805Z,94603.28
2023-05-12T20:01:16.947Z,94597.53
2023-05-12T20:03:43.741Z,94601.75
2023-05-12T20:06:10.862Z,94602.25
2023-05-12T20:08:38.094Z,94603.28
2023-05-12T20:11:04.891Z,94605.25
2023-05-12T20:13:32.247Z,94602.19
2023-05-12T20:15:59.206Z,94603.59
2023-05-12T20:18:26.012Z,94612.34
2023-05-12T20:20:52.767Z,94618.16
2023-05-12T20:23:19.768Z,94612.66
2023-05-12T20:25:47.202Z,94618.13
2023-05-12T20:28:14.074Z,94617.53
2023-05-12T20:30:41.049Z,94613.28
2023-05-12T20:33:07.894Z,94606.31
2023-05-12T20:35:35.148Z,94609.47
2023-05-12T20:38:02.444Z,94610.69
2023-05-12T20:40:29.574Z,94602.50
2023-05-12T20:42:56.257Z,94600.75
2023-05-12T20:45:23.194Z,94606.03
2023-05-12T20:47:50.368Z,94607.06
2023-05-12T20:50:17.921Z,94603.03
2023-05-12T20:52:47.499Z,94608.25
2023-05-12T20:55:14.257Z,94610.41
2023-05-12T20:57:41.382Z,94598.06
2023-05-12T21:00:13.802Z,94593.91
2023-05-12T21:02:40.856Z,94600.03
2023-05-12T21:05:07.853Z,94608.41
2023-05-12T21:07:35.112Z,94603.34
2023-05-12T21:10:04.010Z,94605.94
2023-05-12T21:12:31.617Z,94604.31
2023-05-12T21:14:58.692Z,94610.44
2023-05-12T21:17:25.570Z,94600.84
2023-05-12T21:19:52.567Z,94600.56
2023-05-12T21:22:19.278Z,94601.84
2023-05-12T21:24:45.951Z,94604.31
2023-05-12T21:27:12.839Z,94605.13
2023-05-12T21:29:40.307Z,94604.47
2023-05-12T21:32:07.697Z,94599.25
2023-05-12T21:34:36.064Z,94604.22
2023-05-12T21:37:03.288Z,94596.94
2023-05-12T21:39:30.034Z,94594.06
2023-05-12T21:41:56.794Z,94596.44
2023-05-12T21:44:23.518Z,94602.88
2023-05-12T21:46:50.578Z,94588.72
2023-05-12T21:49:17.285Z,94602.06
2023-05-12T21:51:44.410Z,94605.84
2023-05-12T21:54:12.300Z,94602.09
2023-05-12T21:56:39.027Z,94597.88
2023-05-12T21:59:05.871Z,94601.88
2023-05-12T22:01:33.016Z,94609.31
2023-05-12T22:04:00.102Z,94607.91
2023-05-12T22:06:27.069Z,94609.47
2023-05-12T22:08:54.258Z,94607.78
2023-05-12T22:11:21.897Z,94614.09
2023-05-12T22:13:49.704Z,94612.44
2023-05-12T22:16:18.590Z,94613.59
2023-05-12T22:18:47.094Z,94610.81
2023-05-12T22:21:13.806Z,94605.25
2023-05-12T22:23:42.189Z,94607.28
2023-05-12T22:26:09.559Z,94606.03
2023-05-12T22:28:36.586Z,94604.63
2023-05-12T22:31:03.912Z,94597.84
2023-05-12T22:33:31.620Z,94606.28
2023-05-12T22:36:00.167Z,94599.50
2023-05-12T22:38:27.843Z,94599.25
2023-05-12T22:40:54.692Z,94599.41
2023-05-12T22:43:21.593Z,94602.09
2023-05-12T22:45:55.941Z,94608.25
2023-05-12T22:48:23.117Z,94605.72
2023-05-12T22:50:54.107Z,94608.50
2023-05-12T22:53:21.203Z,94603.34
2023-05-12T22:55:48.073Z,94593.75
2023-05-12T22:58:15.122Z,94603.19
2023-05-12T23:00:41.891Z,94605.06
2023-05-12T23:03:08.915Z,94597.22
2023-05-12T23:05:36.084Z,94600.38
2023-05-12T23:08:06.025Z,94597.28
2023-05-12T23:10:32.689Z,94593.44
2023-05-12T23:12:59.510Z,94592.25
2023-05-12T23:15:26.260Z,94588.56
2023-05-12T23:17:53.010Z,94591.53
2023-05-12T23:20:20.361Z,94584.72
2023-05-12T23:22:47.227Z,94590.25
2023-05-12T23:25:14.208Z,94589.91
2023-05-12T23:27:41.019Z,94577.03
2023-05-12T23:30:08.537Z,94581.44
2023-05-12T23:32:35.493Z,94574.47
2023-05-12T23:35:02.354Z,94580.81
2023-05-12T23:37:29.098Z,94576.06
2023-05-12T23:39:55.868Z,94579.56
2023-05-12T23:42:22.687Z,94573.91
2023-05-12T23:44:49.425Z,94572.81
2023-05-12T23:47:16.143Z,94579.69
2023-05-12T23:49:42.833Z,94582.84
2023-05-12T23:52:09.542Z,94580.50
2023-05-12T23:54:36.557Z,94580.91
2023-05-12T23:57:03.330Z,94576.50
2023-05-12T23:59:30.913Z,94581.88
